Terminal Aerodrome Forecast
Issued by NWS

Home | Current Version | Previous Version | Text Only | Print | Product List | Glossary Off
Versions: 1 2 3 4 5 6 7 8 9 10 11 12 13 14 15 16 17 18 19 20 21

000
FTUS43 KGRB 262300
TAFATW
TAF
KATW 262328Z 2700/2724 29005KT P6SM SCT250
     FM270500 34003KT P6SM BKN120
     FM270900 VRB03KT P6SM BKN070
     FM271300 03008KT P6SM SCT045 BKN100
     FM272000 08007KT P6SM SCT050=

USA.gov is the U.S. government's official web portal to all federal, state and local government web resources and services.